Maersk Bali — 9V7499 — position and weather

sailwx.info

Track history (hours):
 
Tides and Currents Weather Stations Pressure Air Temp Water Temp Dewpoint Dewpoint Depression Visibility Wind Speed Wind Dir Waves Ship Positions

Maersk Bali

Last reported at 2015-Feb-27 16:14 UTC. Time now 2015-Feb-28 15:55 UTC.
Position N 44°26' E 037°15'.

Length 223 m; draft 9.5 m.

Type: Cargo ship. MMSI: 563102000.

Date/timePositionNaut miles runAvg speedWind from/ knotsBaromVisibWave heightAir tempDewpointWater temp
2015-Feb-27 16:14N 44°26' E 037°15'1420.6
2015-Feb-27 15:33N 44°31' E 037°33'1515.2
2015-Feb-27 14:33N 44°41' E 037°50'3 2.7
2015-Feb-27 13:31N 44°43' E 037°49'0 0.0
2015-Feb-27 12:31N 44°43' E 037°49'0 0.0
2015-Feb-27 11:31N 44°43' E 037°49'0 0.0
2015-Feb-27 10:31N 44°43' E 037°49'0 0.0
2015-Feb-27 09:28N 44°43' E 037°49'0 0.0
2015-Feb-27 08:31N 44°43' E 037°49'0 0.0
2015-Feb-27 07:31N 44°43' E 037°49'0 0.0
2015-Feb-27 06:31N 44°43' E 037°49'0 0.0
2015-Feb-27 05:31N 44°43' E 037°49'0 0.0
2015-Feb-27 04:31N 44°43' E 037°49'0 0.0
2015-Feb-27 03:31N 44°43' E 037°49'0 0.0
2015-Feb-27 02:31N 44°43' E 037°49'0 0.0
2015-Feb-27 01:31N 44°43' E 037°49'0 0.0
2015-Feb-27 00:31N 44°43' E 037°49'0 0.0
2015-Feb-26 23:31N 44°43' E 037°49'0 0.0
2015-Feb-26 22:31N 44°43' E 037°49'0 0.0
2015-Feb-26 21:31N 44°43' E 037°49'0 0.0
2015-Feb-26 20:31N 44°43' E 037°49'0 0.0
2015-Feb-26 19:31N 44°43' E 037°49'0 0.0
2015-Feb-26 18:31N 44°43' E 037°49'0 0.0
2015-Feb-26 17:31N 44°43' E 037°49'0 0.0
2015-Feb-26 16:31N 44°43' E 037°49'0 0.0
2015-Feb-26 15:31N 44°43' E 037°49'0 0.0
2015-Feb-26 14:31N 44°43' E 037°49'0 0.0
2015-Feb-26 13:31N 44°43' E 037°49'0 0.0
2015-Feb-26 12:31N 44°43' E 037°49'2 1.6
2015-Feb-26 11:33N 44°42' E 037°49'8 8.3
2015-Feb-26 10:34N 44°34' E 037°51'7 7.2
2015-Feb-26 09:34N 44°29' E 037°44'9 8.8
2015-Feb-26 08:33N 44°33' E 037°33'7 6.9
2015-Feb-26 07:33N 44°36' E 037°24'2 1.5
2015-Feb-26 06:34N 44°36' E 037°26'1 1.1
2015-Feb-26 05:33N 44°35' E 037°27'1 1.0
2015-Feb-26 04:33N 44°36' E 037°26'6 1.8
2015-Feb-26 01:26N 44°33' E 037°33'1 1.1
2015-Feb-26 00:34N 44°32' E 037°34'1 0.9
2015-Feb-25 23:33N 44°32' E 037°35'1 0.8
2015-Feb-25 22:33N 44°32' E 037°36'1 0.9
2015-Feb-25 21:33N 44°32' E 037°37'1 0.8
2015-Feb-25 20:33N 44°32' E 037°39'1 0.6
2015-Feb-25 19:33N 44°31' E 037°39'1 0.9
2015-Feb-25 18:33N 44°31' E 037°40'2 1.5
2015-Feb-25 17:30N 44°32' E 037°42'3 2.9
2015-Feb-25 16:33N 44°34' E 037°44'1 0.8
2015-Feb-25 15:33N 44°34' E 037°45'0 0.0
2015-Feb-25 14:33N 44°34' E 037°45'2 1.5
2015-Feb-25 13:34N 44°33' E 037°47'2 1.6
2015-Feb-25 12:33N 44°32' E 037°49'3 3.3
2015-Feb-25 11:33N 44°33' E 037°44'2 1.7
2015-Feb-25 10:34N 44°32' E 037°47'2 1.7
2015-Feb-25 09:33N 44°31' E 037°49'2 1.8
2015-Feb-25 08:33N 44°30' E 037°50'1 0.8
2015-Feb-25 07:33N 44°30' E 037°49'1 1.2
2015-Feb-25 06:34N 44°30' E 037°51'2 2.5
2015-Feb-25 05:34N 44°32' E 037°52'0 0.3
2015-Feb-25 04:33N 44°32' E 037°52'1 0.8
2015-Feb-25 03:33N 44°32' E 037°51'1 1.2
2015-Feb-25 02:33N 44°30' E 037°50'1514.8
2015-Feb-25 01:32N 44°25' E 037°31'1917.9
2015-Feb-25 00:29N 44°16' E 037°07'10217.3
2015-Feb-24 18:33N 44°15' E 034°44'1717.5
2015-Feb-24 17:33N 44°15' E 034°20'288 6.6
2015-Feb-22 21:33N 41°17' E 029°12'  
2015-Feb-20 12:26N 40°55' E 028°39'0 0.0
2015-Feb-20 11:32N 40°55' E 028°39'0 0.0
2015-Feb-20 10:26N 40°55' E 028°39'0 0.1
2015-Feb-20 09:32N 40°55' E 028°39'0 0.0
2015-Feb-20 08:14N 40°55' E 028°39'0 0.0
2015-Feb-20 07:08N 40°55' E 028°39'0 0.0
2015-Feb-20 06:32N 40°55' E 028°39'8 5.4
2015-Feb-20 05:06N 40°48' E 028°41'916.3
2015-Feb-20 04:33N 40°47' E 028°53'1818.4
2015-Feb-20 03:33N 40°45' E 029°17'1514.5
2015-Feb-20 02:30N 40°45' E 029°37'0 0.0
2015-Feb-18 22:33N 40°45' E 029°37'1212.1
2015-Feb-18 21:33N 40°43' E 029°21'5 4.8
2015-Feb-18 20:33N 40°44' E 029°15'1 0.6
2015-Feb-18 19:33N 40°44' E 029°16'0 0.1
2015-Feb-18 18:33N 40°44' E 029°16'0 0.4
2015-Feb-18 17:33N 40°44' E 029°17'0 0.2
2015-Feb-18 16:33N 40°44' E 029°16'0 0.2
2015-Feb-18 15:33N 40°44' E 029°16'0 0.2
2015-Feb-18 14:33N 40°44' E 029°16'2 1.8
2015-Feb-18 13:33N 40°43' E 029°15'1 0.9
2015-Feb-18 12:33N 40°44' E 029°15'1 0.8
2015-Feb-18 11:33N 40°45' E 029°16'  
Track history (hours):
 
Tides and Currents Weather Stations Pressure Air Temp Water Temp Dewpoint Dewpoint Depression Visibility Wind Speed Wind Dir Waves Ship Positions

Maersk Bali

Last reported at 2015-Feb-27 16:14 UTC. Time now 2015-Feb-28 15:55 UTC.
Position N 44°26' E 037°15'.

Length 223 m; draft 9.5 m.

Type: Cargo ship. MMSI: 563102000.

Date/timePositionNaut miles runAvg speedWind from/ knotsBaromVisibWave heightAir tempDewpointWater temp
2015-Feb-27 16:14N 44°26' E 037°15'1420.6
2015-Feb-27 15:33N 44°31' E 037°33'1515.2
2015-Feb-27 14:33N 44°41' E 037°50'3 2.7
2015-Feb-27 13:31N 44°43' E 037°49'0 0.0
2015-Feb-27 12:31N 44°43' E 037°49'0 0.0
2015-Feb-27 11:31N 44°43' E 037°49'0 0.0
2015-Feb-27 10:31N 44°43' E 037°49'0 0.0
2015-Feb-27 09:28N 44°43' E 037°49'0 0.0
2015-Feb-27 08:31N 44°43' E 037°49'0 0.0
2015-Feb-27 07:31N 44°43' E 037°49'0 0.0
2015-Feb-27 06:31N 44°43' E 037°49'0 0.0
2015-Feb-27 05:31N 44°43' E 037°49'0 0.0
2015-Feb-27 04:31N 44°43' E 037°49'0 0.0
2015-Feb-27 03:31N 44°43' E 037°49'0 0.0
2015-Feb-27 02:31N 44°43' E 037°49'0 0.0
2015-Feb-27 01:31N 44°43' E 037°49'0 0.0
2015-Feb-27 00:31N 44°43' E 037°49'0 0.0
2015-Feb-26 23:31N 44°43' E 037°49'0 0.0
2015-Feb-26 22:31N 44°43' E 037°49'0 0.0
2015-Feb-26 21:31N 44°43' E 037°49'0 0.0
2015-Feb-26 20:31N 44°43' E 037°49'0 0.0
2015-Feb-26 19:31N 44°43' E 037°49'0 0.0
2015-Feb-26 18:31N 44°43' E 037°49'0 0.0
2015-Feb-26 17:31N 44°43' E 037°49'0 0.0
2015-Feb-26 16:31N 44°43' E 037°49'0 0.0
2015-Feb-26 15:31N 44°43' E 037°49'0 0.0
2015-Feb-26 14:31N 44°43' E 037°49'0 0.0
2015-Feb-26 13:31N 44°43' E 037°49'0 0.0
2015-Feb-26 12:31N 44°43' E 037°49'2 1.6
2015-Feb-26 11:33N 44°42' E 037°49'8 8.3
2015-Feb-26 10:34N 44°34' E 037°51'7 7.2
2015-Feb-26 09:34N 44°29' E 037°44'9 8.8
2015-Feb-26 08:33N 44°33' E 037°33'7 6.9
2015-Feb-26 07:33N 44°36' E 037°24'2 1.5
2015-Feb-26 06:34N 44°36' E 037°26'1 1.1
2015-Feb-26 05:33N 44°35' E 037°27'1 1.0
2015-Feb-26 04:33N 44°36' E 037°26'6 1.8
2015-Feb-26 01:26N 44°33' E 037°33'1 1.1
2015-Feb-26 00:34N 44°32' E 037°34'1 0.9
2015-Feb-25 23:33N 44°32' E 037°35'1 0.8
2015-Feb-25 22:33N 44°32' E 037°36'1 0.9
2015-Feb-25 21:33N 44°32' E 037°37'1 0.8
2015-Feb-25 20:33N 44°32' E 037°39'1 0.6
2015-Feb-25 19:33N 44°31' E 037°39'1 0.9
2015-Feb-25 18:33N 44°31' E 037°40'2 1.5
2015-Feb-25 17:30N 44°32' E 037°42'3 2.9
2015-Feb-25 16:33N 44°34' E 037°44'1 0.8
2015-Feb-25 15:33N 44°34' E 037°45'0 0.0
2015-Feb-25 14:33N 44°34' E 037°45'2 1.5
2015-Feb-25 13:34N 44°33' E 037°47'2 1.6
2015-Feb-25 12:33N 44°32' E 037°49'3 3.3
2015-Feb-25 11:33N 44°33' E 037°44'2 1.7
2015-Feb-25 10:34N 44°32' E 037°47'2 1.7
2015-Feb-25 09:33N 44°31' E 037°49'2 1.8
2015-Feb-25 08:33N 44°30' E 037°50'1 0.8
2015-Feb-25 07:33N 44°30' E 037°49'1 1.2
2015-Feb-25 06:34N 44°30' E 037°51'2 2.5
2015-Feb-25 05:34N 44°32' E 037°52'0 0.3
2015-Feb-25 04:33N 44°32' E 037°52'1 0.8
2015-Feb-25 03:33N 44°32' E 037°51'1 1.2
2015-Feb-25 02:33N 44°30' E 037°50'1514.8
2015-Feb-25 01:32N 44°25' E 037°31'1917.9
2015-Feb-25 00:29N 44°16' E 037°07'10217.3
2015-Feb-24 18:33N 44°15' E 034°44'1717.5
2015-Feb-24 17:33N 44°15' E 034°20'288 6.6
2015-Feb-22 21:33N 41°17' E 029°12'  
2015-Feb-20 12:26N 40°55' E 028°39'0 0.0
2015-Feb-20 11:32N 40°55' E 028°39'0 0.0
2015-Feb-20 10:26N 40°55' E 028°39'0 0.1
2015-Feb-20 09:32N 40°55' E 028°39'0 0.0
2015-Feb-20 08:14N 40°55' E 028°39'0 0.0
2015-Feb-20 07:08N 40°55' E 028°39'0 0.0
2015-Feb-20 06:32N 40°55' E 028°39'8 5.4
2015-Feb-20 05:06N 40°48' E 028°41'916.3
2015-Feb-20 04:33N 40°47' E 028°53'1818.4
2015-Feb-20 03:33N 40°45' E 029°17'1514.5
2015-Feb-20 02:30N 40°45' E 029°37'0 0.0
2015-Feb-18 22:33N 40°45' E 029°37'1212.1
2015-Feb-18 21:33N 40°43' E 029°21'5 4.8
2015-Feb-18 20:33N 40°44' E 029°15'1 0.6
2015-Feb-18 19:33N 40°44' E 029°16'0 0.1
2015-Feb-18 18:33N 40°44' E 029°16'0 0.4
2015-Feb-18 17:33N 40°44' E 029°17'0 0.2
2015-Feb-18 16:33N 40°44' E 029°16'0 0.2
2015-Feb-18 15:33N 40°44' E 029°16'0 0.2
2015-Feb-18 14:33N 40°44' E 029°16'2 1.8
2015-Feb-18 13:33N 40°43' E 029°15'1 0.9
2015-Feb-18 12:33N 40°44' E 029°15'1 0.8
2015-Feb-18 11:33N 40°45' E 029°16'  

Dump ship's entire track history